Time;durP1;ratioP1;P1;durP2;ratioP2;P2;SDS_P1;SDS_P2;PMS_P1;PMS_P2;Temp;Humidity;BMP_temperature;BMP_pressure;BME280_temperature;BME280_humidity;BME280_pressure;Samples;Min_cycle;Max_cycle;Signal;HPM_P1;HPM_P2
2021/10/08 00:01:57;;;;;;;;;7.75;6.00;;;;;12.89;67.01;102020.75;5056036;28;62076;-60
2021/10/08 00:04:23;;;;;;;;;3.75;3.00;;;;;12.89;67.26;102020.75;5041307;28;53258;-60
2021/10/08 00:06:48;;;;;;;;;9.00;7.50;;;;;12.88;67.17;102019.09;5059646;28;45250;-60
2021/10/08 00:09:15;;;;;;;;;7.00;7.00;;;;;12.87;66.97;102019.22;5059253;28;53980;-60
2021/10/08 00:11:40;;;;;;;;;12.00;10.00;;;;;12.85;66.35;102021.94;5059724;28;45240;-60
2021/10/08 00:14:05;;;;;;;;;7.50;7.50;;;;;12.83;66.49;102025.66;5041604;28;45331;-60
2021/10/08 00:16:31;;;;;;;;;9.00;7.25;;;;;12.77;66.75;102022.53;5059739;28;45471;-60
2021/10/08 00:18:56;;;;;;;;;7.50;7.50;;;;;12.74;66.75;102019.25;5040929;28;61965;-60
2021/10/08 00:21:22;;;;;;;;;6.75;6.50;;;;;12.71;66.91;102022.97;5059263;28;45370;-60
2021/10/08 00:23:47;;;;;;;;;8.75;6.00;;;;;12.66;66.87;102025.09;5059399;28;45310;-59
2021/10/08 00:26:13;;;;;;;;;6.50;6.50;;;;;12.62;67.11;102021.00;5059401;28;45415;-60
2021/10/08 00:28:38;;;;;;;;;13.25;7.75;;;;;12.60;67.21;102031.69;5041163;28;51543;-60
2021/10/08 00:31:03;;;;;;;;;9.00;7.00;;;;;12.57;66.91;102029.28;5058730;28;60067;-60
2021/10/08 00:33:29;;;;;;;;;7.50;6.00;;;;;12.56;67.17;102029.38;5058911;28;56267;-60
2021/10/08 00:35:54;;;;;;;;;5.00;5.00;;;;;12.52;67.61;102028.75;5058694;28;60788;-60
2021/10/08 00:38:19;;;;;;;;;9.50;7.50;;;;;12.49;67.44;102033.41;5058626;28;60069;-60
2021/10/08 00:40:47;;;;;;;;;9.25;8.00;;;;;12.46;67.47;102030.03;5058491;28;62556;-60
2021/10/08 00:43:18;;;;;;;;;9.00;7.50;;;;;12.42;67.48;102027.75;5059234;28;45367;-60
2021/10/08 00:45:43;;;;;;;;;8.50;6.25;;;;;12.40;68.04;102029.66;5025381;28;45411;-60
2021/10/08 00:48:08;;;;;;;;;6.00;6.00;;;;;12.36;67.95;102036.94;5040192;28;68403;-60
2021/10/08 00:50:38;;;;;;;;;8.50;7.00;;;;;12.36;68.06;102038.72;5058237;28;69544;-60
2021/10/08 00:53:05;;;;;;;;;7.25;6.75;;;;;12.31;67.86;102039.91;5041113;28;45427;-60
2021/10/08 00:55:30;;;;;;;;;8.00;6.00;;;;;12.29;68.45;102041.81;5059100;28;45162;-60
2021/10/08 00:57:55;;;;;;;;;6.00;6.00;;;;;12.27;68.03;102040.25;5058834;28;47194;-60
2021/10/08 01:00:21;;;;;;;;;5.50;5.50;;;;;12.25;68.29;102042.16;5058242;28;63096;-60
2021/10/08 01:02:46;;;;;;;;;7.00;7.00;;;;;12.24;68.13;102038.66;5058111;28;63907;-60
2021/10/08 01:05:12;;;;;;;;;7.00;7.00;;;;;12.22;68.60;102039.72;5058892;28;45305;-60
2021/10/08 01:07:37;;;;;;;;;12.00;9.00;;;;;12.20;68.76;102042.47;5058564;28;46221;-60
2021/10/08 01:10:04;;;;;;;;;6.25;6.00;;;;;12.17;68.93;102040.91;5058000;28;63481;-60
2021/10/08 01:12:29;;;;;;;;;8.50;7.00;;;;;12.14;68.53;102035.84;5058775;28;45407;-60
2021/10/08 01:14:55;;;;;;;;;5.50;5.50;;;;;12.13;68.69;102036.78;5039482;28;45677;-60
2021/10/08 01:17:20;;;;;;;;;7.00;6.00;;;;;12.12;68.28;102036.91;5057806;28;68875;-60
2021/10/08 01:19:46;;;;;;;;;6.00;6.00;;;;;12.11;68.58;102029.97;5057877;28;65673;-60
2021/10/08 01:22:11;;;;;;;;;10.25;6.25;;;;;12.10;68.48;102036.19;5058682;28;45385;-60
2021/10/08 01:24:36;;;;;;;;;2.00;1.75;;;;;12.09;68.94;102037.13;5040582;28;45346;-60
2021/10/08 01:27:05;;;;;;;;;6.25;6.25;;;;;12.07;68.74;102031.97;5039745;28;54437;-60
2021/10/08 01:29:31;;;;;;;;;7.00;5.75;;;;;12.06;68.83;102032.91;5058464;28;45913;-60
2021/10/08 01:31:57;;;;;;;;;7.25;6.25;;;;;12.04;68.90;102029.53;5058561;28;45242;-60
2021/10/08 01:34:22;;;;;;;;;7.50;6.50;;;;;12.02;68.80;102021.75;5058496;28;45210;-60
2021/10/08 01:36:48;;;;;;;;;7.25;7.00;;;;;12.01;68.81;102025.34;5039376;28;69625;-60
2021/10/08 01:39:13;;;;;;;;;7.00;6.50;;;;;11.98;69.43;102030.78;5058285;28;45415;-60
2021/10/08 01:41:38;;;;;;;;;7.25;6.50;;;;;11.98;69.01;102030.78;5058387;28;45394;-60
2021/10/08 01:44:04;;;;;;;;;4.50;4.50;;;;;11.95;69.42;102033.66;5039559;28;63538;-62
2021/10/08 01:46:29;;;;;;;;;6.50;6.50;;;;;11.95;69.43;102031.00;5057348;28;69768;-59
2021/10/08 01:48:55;;;;;;;;;7.25;6.00;;;;;11.95;69.50;102027.53;5057564;28;65151;-62
2021/10/08 01:51:20;;;;;;;;;8.00;6.50;;;;;11.94;69.62;102034.59;5039681;28;64820;-62
2021/10/08 01:53:46;;;;;;;;;9.25;7.00;;;;;11.93;69.49;102032.91;5040282;28;45494;-62
2021/10/08 01:56:11;;;;;;;;;7.50;6.00;;;;;11.92;69.62;102036.50;5039155;28;67490;-62
2021/10/08 01:58:36;;;;;;;;;8.25;7.00;;;;;11.91;70.11;102028.72;5039361;28;65584;-62
2021/10/08 02:01:02;;;;;;;;;8.50;7.00;;;;;11.88;70.07;102022.72;5058283;28;45803;-62
2021/10/08 02:03:27;;;;;;;;;8.25;8.25;;;;;11.87;70.24;102034.19;5058193;28;45272;-62
2021/10/08 02:05:53;;;;;;;;;8.00;7.00;;;;;11.86;70.37;102031.66;5057863;28;46522;-61
2021/10/08 02:08:18;;;;;;;;;7.00;6.00;;;;;11.88;70.38;102027.97;5057303;28;62363;-62
2021/10/08 02:10:43;;;;;;;;;8.00;7.00;;;;;11.90;70.13;102030.50;5039207;28;65049;-62
2021/10/08 02:13:09;;;;;;;;;9.50;8.00;;;;;11.87;70.03;102023.66;5057326;28;62963;-62
2021/10/08 02:15:34;;;;;;;;;7.00;7.00;;;;;11.87;69.62;102022.81;5057712;28;45296;-62
2021/10/08 02:18:00;;;;;;;;;7.50;7.50;;;;;11.86;69.27;102027.25;5056739;28;70361;-62
2021/10/08 02:20:25;;;;;;;;;8.75;7.25;;;;;11.86;68.87;102021.13;5057175;28;61000;-62
2021/10/08 02:22:51;;;;;;;;;9.75;6.50;;;;;11.86;69.33;102026.38;5057490;28;45281;-61
2021/10/08 02:25:16;;;;;;;;;8.00;6.00;;;;;11.87;69.42;102023.66;5057086;28;46174;-60
2021/10/08 02:27:41;;;;;;;;;8.25;7.00;;;;;11.86;69.19;102026.38;5056633;28;67862;-62
2021/10/08 02:30:07;;;;;;;;;8.25;7.50;;;;;11.86;69.08;102021.13;5057048;28;58876;-62
2021/10/08 02:32:33;;;;;;;;;9.00;9.00;;;;;11.83;69.44;102027.47;5039610;28;45549;-62
2021/10/08 02:34:58;;;;;;;;;9.00;8.00;;;;;11.83;69.58;102022.19;5039196;28;50236;-62
2021/10/08 02:37:23;;;;;;;;;12.25;8.75;;;;;11.81;69.18;102016.19;5056605;28;64017;-62
2021/10/08 02:39:49;;;;;;;;;9.75;9.75;;;;;11.82;69.18;102019.66;5056904;28;63979;-62
2021/10/08 02:42:14;;;;;;;;;11.50;10.00;;;;;11.80;69.65;102018.91;5039328;28;45386;-59
2021/10/08 02:44:40;;;;;;;;;8.00;8.00;;;;;11.79;69.86;102023.34;5057319;28;45917;-59
2021/10/08 02:47:05;;;;;;;;;9.00;8.00;;;;;11.79;70.06;102019.88;5039049;28;45351;-59
2021/10/08 02:49:31;;;;;;;;;11.00;9.25;;;;;11.78;70.14;102019.03;5057234;28;45964;-59
2021/10/08 02:51:56;;;;;;;;;9.75;8.50;;;;;11.75;70.31;102015.75;5057297;28;45515;-59
2021/10/08 02:54:22;;;;;;;;;10.75;9.50;;;;;11.75;69.77;102021.03;5056973;28;45491;-59
2021/10/08 02:56:47;;;;;;;;;8.75;8.50;;;;;11.76;69.85;102014.81;5057134;28;45446;-59
2021/10/08 02:59:13;;;;;;;;;10.75;9.75;;;;;11.75;70.58;102013.97;5057260;28;45406;-59
2021/10/08 03:01:38;;;;;;;;;10.00;9.00;;;;;11.74;69.92;102014.94;5039028;28;45574;-59
2021/10/08 03:04:04;;;;;;;;;10.00;9.00;;;;;11.72;69.54;102019.47;5057062;28;45399;-59
2021/10/08 03:06:30;;;;;;;;;8.50;8.50;;;;;11.71;69.92;102023.88;5056807;28;45384;-59
2021/10/08 03:08:56;;;;;;;;;10.00;8.00;;;;;11.70;70.39;102016.91;5039018;28;45447;-59
2021/10/08 03:11:25;;;;;;;;;9.00;7.75;;;;;11.71;70.12;102015.97;5056948;28;45495;-59
2021/10/08 03:13:50;;;;;;;;;9.00;9.00;;;;;11.74;70.25;102014.94;5039124;28;45683;-60
2021/10/08 03:16:16;;;;;;;;;9.50;9.50;;;;;11.73;70.10;102026.41;5022015;28;45356;-59
2021/10/08 03:18:41;;;;;;;;;11.50;9.00;;;;;11.71;70.44;102013.34;5056857;28;45312;-59
2021/10/08 03:21:06;;;;;;;;;9.50;9.00;;;;;11.70;70.36;102019.56;5056708;28;45506;-59
2021/10/08 03:23:32;;;;;;;;;11.00;9.75;;;;;11.71;70.05;102023.03;5056454;28;45406;-59
2021/10/08 03:25:57;;;;;;;;;8.25;7.00;;;;;11.68;70.11;102025.88;5056583;28;45342;-59
2021/10/08 03:28:23;;;;;;;;;10.00;9.00;;;;;11.67;70.20;102022.41;5055920;28;60803;-59
2021/10/08 03:30:48;;;;;;;;;8.00;8.00;;;;;11.65;70.01;102029.59;5055946;28;59522;-59
2021/10/08 03:33:13;;;;;;;;;9.00;8.00;;;;;11.65;70.43;102024.31;5055533;28;68775;-59
2021/10/08 03:35:42;;;;;;;;;11.75;10.75;;;;;11.66;70.43;102030.41;5055676;28;68604;-59
2021/10/08 03:38:13;;;;;;;;;11.00;10.00;;;;;11.66;70.23;102035.69;5055560;28;45478;-59
2021/10/08 03:40:40;;;;;;;;;11.75;10.00;;;;;11.65;69.73;102026.97;5038920;28;45417;-59
2021/10/08 03:43:05;;;;;;;;;15.25;10.00;;;;;11.62;69.91;102016.63;5056319;28;45421;-59
2021/10/08 03:45:32;;;;;;;;;11.00;10.50;;;;;11.63;69.92;102026.22;5021807;28;45444;-59
2021/10/08 03:48:18;;;;;;;;;13.00;9.00;;;;;11.63;70.04;102014.81;5038672;28;45282;-59
2021/10/08 03:50:44;;;;;;;;;12.00;9.75;;;;;11.62;70.03;102015.78;5024513;28;45488;-59
2021/10/08 03:53:09;;;;;;;;;11.00;10.75;;;;;11.61;69.87;102025.47;5056155;28;46709;-61
2021/10/08 03:55:35;;;;;;;;;11.75;8.75;;;;;11.61;70.24;102027.25;5055738;28;61126;-62
2021/10/08 03:58:00;;;;;;;;;12.00;10.00;;;;;11.62;69.79;102023.69;5056373;28;45425;-62
2021/10/08 04:00:25;;;;;;;;;13.50;11.50;;;;;11.63;70.30;102030.63;5056353;28;45245;-62
2021/10/08 04:02:51;;;;;;;;;13.25;11.50;;;;;11.59;69.91;102030.00;5055242;28;69002;-62
2021/10/08 04:05:16;;;;;;;;;16.25;11.50;;;;;11.58;69.64;102030.97;5056044;28;45288;-59
2021/10/08 04:07:41;;;;;;;;;13.75;12.75;;;;;11.54;69.54;102030.31;5056078;28;45439;-59
2021/10/08 04:10:07;;;;;;;;;14.50;11.75;;;;;11.54;69.08;102035.56;5055935;28;45421;-59
2021/10/08 04:12:33;;;;;;;;;21.75;21.25;;;;;11.49;69.34;102028.94;5055940;28;46201;-61
2021/10/08 04:14:58;;;;;;;;;14.75;12.00;;;;;11.47;68.94;102028.22;5037340;28;66912;-61
2021/10/08 04:17:23;;;;;;;;;16.25;10.25;;;;;11.43;69.32;102036.31;5055920;28;49562;-61
2021/10/08 04:19:49;;;;;;;;;14.75;11.25;;;;;11.41;69.18;102032.94;5056146;28;45335;-61
2021/10/08 04:22:14;;;;;;;;;16.25;13.00;;;;;11.42;69.17;102026.75;5055232;28;67422;-61
2021/10/08 04:24:40;;;;;;;;;13.25;12.50;;;;;11.39;69.61;102037.47;5034558;28;45267;-61
2021/10/08 04:27:05;;;;;;;;;12.75;11.75;;;;;11.38;69.55;102027.06;5035186;28;63094;-61
2021/10/08 04:29:30;;;;;;;;;11.00;10.00;;;;;11.37;69.75;102031.47;5034900;28;65565;-61
2021/10/08 04:31:56;;;;;;;;;17.00;13.25;;;;;11.34;69.97;102033.47;5034556;28;45389;-61
2021/10/08 04:34:22;;;;;;;;;16.50;14.00;;;;;11.33;69.67;102037.88;5035757;28;45195;-61
2021/10/08 04:36:48;;;;;;;;;26.50;24.00;;;;;11.31;69.79;102034.50;5034919;28;65192;-61
2021/10/08 04:39:13;;;;;;;;;14.75;11.75;;;;;11.29;69.85;102033.78;5035141;28;62596;-61
2021/10/08 04:41:38;;;;;;;;;17.25;12.00;;;;;11.27;69.87;102031.25;5035320;28;48774;-61
2021/10/08 04:44:06;;;;;;;;;12.50;12.50;;;;;11.28;70.30;102037.34;5034553;28;73306;-61
2021/10/08 04:46:31;;;;;;;;;16.00;12.75;;;;;11.26;70.07;102032.19;5035662;28;45418;-61
2021/10/08 04:48:57;;;;;;;;;12.75;11.25;;;;;11.25;70.01;102035.78;5036454;28;45372;-61
2021/10/08 04:51:22;;;;;;;;;14.25;11.75;;;;;11.25;70.40;102040.19;5039068;28;45352;-61
2021/10/08 04:53:48;;;;;;;;;13.00;13.00;;;;;11.24;69.91;102035.88;5038411;28;60828;-61
2021/10/08 04:56:13;;;;;;;;;11.00;10.50;;;;;11.25;70.05;102037.56;5038900;28;45299;-61
2021/10/08 04:58:38;;;;;;;;;17.50;12.50;;;;;11.23;70.28;102035.03;5038225;28;61558;-61
2021/10/08 05:01:04;;;;;;;;;11.50;10.50;;;;;11.21;70.51;102038.69;5038205;28;65710;-61
2021/10/08 05:03:29;;;;;;;;;12.00;12.00;;;;;11.22;70.47;102037.75;5038765;28;45351;-61
2021/10/08 05:05:55;;;;;;;;;14.75;13.00;;;;;11.20;70.56;102044.91;5038876;28;45761;-61
2021/10/08 05:08:21;;;;;;;;;15.00;13.00;;;;;11.19;70.64;102046.72;5038705;28;45998;-61
2021/10/08 05:10:47;;;;;;;;;17.00;11.50;;;;;11.18;70.36;102042.41;5037218;28;46661;-61
2021/10/08 05:13:12;;;;;;;;;12.75;12.25;;;;;11.17;70.85;102042.47;5037801;28;68776;-61
2021/10/08 05:15:37;;;;;;;;;13.00;11.00;;;;;11.18;70.77;102041.53;5038637;28;45184;-61
2021/10/08 05:18:03;;;;;;;;;16.50;16.25;;;;;11.17;70.77;102029.31;5037266;28;45397;-61
2021/10/08 05:20:28;;;;;;;;;18.50;16.00;;;;;11.20;70.74;102044.91;5038343;28;46181;-61
2021/10/08 05:22:54;;;;;;;;;21.50;19.25;;;;;11.22;71.16;102037.75;5043388;28;45470;-61
2021/10/08 05:25:19;;;;;;;;;16.50;15.25;;;;;11.23;70.78;102042.94;5039911;28;60113;-61
2021/10/08 05:27:44;;;;;;;;;20.50;20.50;;;;;11.23;70.39;102039.44;5058289;28;45485;-61
2021/10/08 05:30:10;;;;;;;;;22.00;19.50;;;;;11.21;70.36;102047.47;5058233;28;46292;-61
2021/10/08 05:32:36;;;;;;;;;24.50;19.25;;;;;11.19;70.94;102044.09;5057300;28;69003;-61
2021/10/08 05:35:01;;;;;;;;;20.50;15.50;;;;;11.17;70.87;102042.47;5058329;28;45301;-61
2021/10/08 05:37:26;;;;;;;;;20.00;16.75;;;;;11.16;70.97;102049.53;5057843;28;45291;-61
2021/10/08 05:39:52;;;;;;;;;25.75;21.75;;;;;11.13;71.06;102042.69;5057127;28;74789;-61
2021/10/08 05:42:17;;;;;;;;;23.75;18.50;;;;;11.13;70.80;102050.56;5058131;28;45334;-61
2021/10/08 05:44:42;;;;;;;;;25.25;19.25;;;;;11.13;70.88;102045.31;5057423;28;64135;-61
2021/10/08 05:47:08;;;;;;;;;20.50;19.50;;;;;11.13;71.26;102045.31;5057325;28;58804;-61
2021/10/08 05:49:33;;;;;;;;;25.50;22.00;;;;;11.13;71.17;102047.94;5057652;28;46074;-61
2021/10/08 05:51:59;;;;;;;;;24.75;21.50;;;;;11.13;70.72;102039.22;5039309;28;64609;-61
2021/10/08 05:54:24;;;;;;;;;19.50;17.25;;;;;11.15;70.72;102053.13;5057668;28;45244;-61
2021/10/08 05:56:50;;;;;;;;;20.75;19.00;;;;;11.17;70.86;102055.63;5058085;28;45283;-61
2021/10/08 05:59:15;;;;;;;;;17.75;16.25;;;;;11.17;70.66;102048.59;5038719;28;66955;-59
2021/10/08 06:01:42;;;;;;;;;16.25;15.25;;;;;11.17;70.72;102055.63;5057353;28;45206;-59
2021/10/08 06:04:07;;;;;;;;;20.50;19.00;;;;;11.18;71.12;102058.19;5057874;28;45395;-59
2021/10/08 06:06:33;;;;;;;;;27.75;22.00;;;;;11.18;70.84;102057.31;5039653;28;45279;-61
2021/10/08 06:08:59;;;;;;;;;26.00;23.75;;;;;11.18;71.15;102052.91;5057591;28;45398;-62
2021/10/08 06:11:24;;;;;;;;;23.00;19.50;;;;;11.17;71.04;102058.28;5039714;28;45510;-59
2021/10/08 06:13:49;;;;;;;;;27.25;22.75;;;;;11.18;71.28;102052.06;5057021;28;64691;-59
2021/10/08 06:16:15;;;;;;;;;28.00;22.50;;;;;11.17;70.92;102060.91;5056845;28;67912;-62
2021/10/08 06:18:40;;;;;;;;;23.00;22.50;;;;;11.17;71.31;102059.13;5056605;28;71788;-62
2021/10/08 06:21:05;;;;;;;;;23.50;21.50;;;;;11.18;71.38;102059.94;5056591;28;70503;-61
2021/10/08 06:23:31;;;;;;;;;23.50;17.75;;;;;11.16;71.34;102065.34;5056573;28;65267;-61
2021/10/08 06:25:56;;;;;;;;;23.25;19.75;;;;;11.17;71.15;102064.38;5056840;28;61401;-61
2021/10/08 06:28:22;;;;;;;;;21.00;18.00;;;;;11.18;71.57;102070.47;5056885;28;56361;-61
2021/10/08 06:30:47;;;;;;;;;20.00;18.00;;;;;11.18;71.09;102071.34;5057351;28;45276;-61
2021/10/08 06:33:14;;;;;;;;;19.75;15.50;;;;;11.19;70.97;102074.78;5056304;28;66730;-61
2021/10/08 06:35:41;;;;;;;;;18.75;15.75;;;;;11.18;71.36;102070.47;5022348;28;45273;-61
2021/10/08 06:38:06;;;;;;;;;22.00;15.50;;;;;11.18;71.35;102081.84;5057265;28;46571;-61
2021/10/08 06:40:32;;;;;;;;;20.75;17.00;;;;;11.17;71.13;102077.53;5056891;28;45329;-61
2021/10/08 06:42:57;;;;;;;;;20.75;19.00;;;;;11.18;71.20;102087.13;5057315;28;45664;-61
2021/10/08 06:45:25;;;;;;;;;21.25;18.00;;;;;11.18;71.66;102081.84;5022522;28;45325;-61
2021/10/08 06:47:51;;;;;;;;;17.00;16.75;;;;;11.17;71.05;102085.44;5039093;28;46237;-61
2021/10/08 06:50:16;;;;;;;;;19.75;17.75;;;;;11.16;71.31;102082.88;5056986;28;45430;-61
2021/10/08 06:52:41;;;;;;;;;21.50;18.25;;;;;11.16;71.22;102081.13;5056465;28;60984;-61
2021/10/08 06:55:07;;;;;;;;;21.00;17.00;;;;;11.16;71.54;102093.41;5056340;28;64996;-61
2021/10/08 06:57:32;;;;;;;;;23.00;19.00;;;;;11.18;71.21;102094.16;5038919;28;47507;-61
2021/10/08 06:59:58;;;;;;;;;23.50;21.00;;;;;11.18;71.16;102095.00;5057059;28;45380;-61
2021/10/08 07:02:23;;;;;;;;;21.25;19.00;;;;;11.19;71.35;102094.06;5057082;28;45872;-61
2021/10/08 07:04:48;;;;;;;;;23.25;21.25;;;;;11.20;71.37;102089.63;5037887;28;68883;-60
2021/10/08 07:07:14;;;;;;;;;26.50;21.50;;;;;11.22;71.23;102087.75;5056752;28;45464;-61
2021/10/08 07:09:39;;;;;;;;;28.00;22.00;;;;;11.23;71.65;102090.28;5056040;28;68454;-61
2021/10/08 07:12:05;;;;;;;;;28.50;23.25;;;;;11.25;71.52;102098.06;5056055;28;62205;-61
2021/10/08 07:14:30;;;;;;;;;24.50;22.50;;;;;11.28;71.98;102100.50;5057007;28;45385;-61
2021/10/08 07:16:55;;;;;;;;;21.50;20.25;;;;;11.31;71.49;102097.66;5055836;28;66511;-61
2021/10/08 07:19:22;;;;;;;;;26.50;20.00;;;;;11.35;72.00;102096.53;5056598;28;45391;-61
2021/10/08 07:21:48;;;;;;;;;24.75;24.00;;;;;11.39;71.53;102100.63;5056835;28;45364;-61
2021/10/08 07:24:14;;;;;;;;;25.00;21.75;;;;;11.47;71.21;102101.91;5038294;28;45570;-61
2021/10/08 07:26:39;;;;;;;;;23.25;19.50;;;;;11.51;71.37;102104.22;5021011;28;65120;-61
2021/10/08 07:29:05;;;;;;;;;22.25;19.50;;;;;11.57;71.30;102101.19;5038499;28;45373;-61
2021/10/08 07:31:30;;;;;;;;;17.00;14.75;;;;;11.62;71.05;102108.78;5056001;28;57498;-61
2021/10/08 07:33:55;;;;;;;;;19.00;15.50;;;;;11.64;71.25;102106.88;5038450;28;50659;-61
2021/10/08 07:36:21;;;;;;;;;23.25;19.75;;;;;11.66;70.78;102099.69;5055480;28;68312;-61
2021/10/08 07:38:46;;;;;;;;;23.25;18.75;;;;;11.71;70.87;102102.03;5056289;28;45400;-61
2021/10/08 07:41:12;;;;;;;;;22.00;18.00;;;;;11.73;70.93;102106.22;5055064;28;45551;-61
2021/10/08 07:43:37;;;;;;;;;23.00;21.25;;;;;11.77;70.42;102098.97;5055456;28;45413;-61
2021/10/08 07:46:06;;;;;;;;;20.00;18.00;;;;;11.80;70.68;102111.09;5054966;28;46090;-61
2021/10/08 07:48:32;;;;;;;;;22.00;17.50;;;;;11.84;70.48;102097.63;5054999;28;45867;-61
2021/10/08 07:50:57;;;;;;;;;17.50;17.00;;;;;11.95;70.51;102110.03;5051438;28;45466;-59
2021/10/08 07:53:27;;;;;;;;;17.50;17.00;;;;;12.07;70.69;102108.38;5052768;28;64509;-61
2021/10/08 07:55:52;;;;;;;;;21.00;18.00;;;;;12.20;70.58;102108.34;5034237;28;45516;-61
2021/10/08 07:58:18;;;;;;;;;17.75;16.50;;;;;12.42;70.11;102105.06;5054034;28;45520;-61
2021/10/08 08:00:43;;;;;;;;;17.00;15.00;;;;;12.65;69.67;102109.63;5053254;28;45378;-61
2021/10/08 08:03:09;;;;;;;;;22.00;17.50;;;;;12.89;68.90;102099.91;5054052;28;45471;-61
2021/10/08 08:05:34;;;;;;;;;17.00;16.00;;;;;13.13;68.38;102106.13;5034564;28;49082;-59
2021/10/08 08:07:59;;;;;;;;;17.25;15.75;;;;;13.40;66.90;102103.19;5051967;28;67996;-61
2021/10/08 08:10:25;;;;;;;;;18.25;16.75;;;;;13.65;67.14;102096.09;5034184;28;58150;-62
2021/10/08 08:12:50;;;;;;;;;18.25;17.50;;;;;13.90;66.19;102104.75;5052163;28;66776;-62
2021/10/08 08:15:18;;;;;;;;;18.50;16.00;;;;;14.17;65.73;102099.09;5052699;28;67717;-62
2021/10/08 08:17:43;;;;;;;;;22.25;18.00;;;;;14.42;65.03;102093.66;5053405;28;45480;-59
2021/10/08 08:20:09;;;;;;;;;19.75;16.00;;;;;14.67;64.12;102096.03;5052955;28;64969;-59
2021/10/08 08:22:34;;;;;;;;;17.50;15.25;;;;;14.90;63.77;102103.06;5051016;28;45575;-60
2021/10/08 08:25:00;;;;;;;;;14.75;12.75;;;;;15.12;63.17;102099.50;5056974;28;45399;-59
2021/10/08 08:27:25;;;;;;;;;16.25;15.50;;;;;15.34;62.35;102098.53;5056843;28;45472;-59
2021/10/08 08:29:50;;;;;;;;;14.25;13.25;;;;;15.55;61.65;102095.88;5056020;28;62148;-60
2021/10/08 08:32:16;;;;;;;;;13.75;13.75;;;;;15.77;61.15;102094.03;5056061;28;59568;-60
2021/10/08 08:34:42;;;;;;;;;16.75;15.00;;;;;16.02;60.50;102102.53;5055864;28;71134;-60
2021/10/08 08:37:07;;;;;;;;;14.75;11.75;;;;;16.23;59.91;102105.13;5056688;28;45301;-60
2021/10/08 08:39:34;;;;;;;;;11.25;10.50;;;;;16.42;59.23;102096.41;5056532;28;45535;-60
2021/10/08 08:41:59;;;;;;;;;13.25;12.25;;;;;16.60;58.08;102095.72;5056606;28;45589;-60
2021/10/08 08:44:24;;;;;;;;;10.00;10.00;;;;;16.80;57.48;102096.56;5021337;28;70076;-60
2021/10/08 08:46:50;;;;;;;;;11.50;10.00;;;;;16.99;57.38;102103.72;5055291;28;71098;-60
2021/10/08 08:49:15;;;;;;;;;35.50;31.75;;;;;17.17;56.53;102105.69;5056789;28;45447;-60
2021/10/08 08:51:41;;;;;;;;;11.00;10.00;;;;;17.33;55.80;102095.31;5037440;28;63599;-60
2021/10/08 08:54:07;;;;;;;;;12.00;10.00;;;;;17.50;55.37;102106.19;5056515;28;46255;-59
2021/10/08 08:56:33;;;;;;;;;8.50;7.25;;;;;17.67;55.31;102101.13;5056457;28;45496;-60
2021/10/08 08:59:10;;;;;;;;;8.00;7.00;;;;;17.83;54.63;102088.06;5056502;28;45458;-60
2021/10/08 09:01:35;;;;;;;;;7.50;7.00;;;;;17.99;54.09;102095.44;5054944;28;45423;-60
2021/10/08 09:04:05;;;;;;;;;8.00;8.00;;;;;18.14;53.46;102103.75;5037964;28;46236;-60
2021/10/08 09:06:38;;;;;;;;;9.00;8.00;;;;;18.27;53.60;102097.25;5056560;28;45967;-60
2021/10/08 09:09:16;;;;;;;;;11.00;10.50;;;;;18.42;52.75;102095.78;5055955;28;45450;-60
2021/10/08 09:11:42;;;;;;;;;9.00;9.00;;;;;18.60;53.16;102102.91;5056285;28;45434;-60
2021/10/08 09:14:18;;;;;;;;;9.75;7.00;;;;;18.80;52.35;102096.47;5056193;28;46523;-60
2021/10/08 09:17:06;;;;;;;;;9.00;8.00;;;;;19.00;51.57;102093.69;5056105;28;46277;-59
2021/10/08 09:20:01;;;;;;;;;9.00;7.25;;;;;19.13;51.26;102099.44;5055845;28;45360;-60
2021/10/08 09:22:54;;;;;;;;;9.00;8.75;;;;;19.27;50.47;102083.88;5032953;28;45711;-60
2021/10/08 09:25:33;;;;;;;;;10.00;7.00;;;;;19.40;50.47;102086.13;5056089;28;46512;-60
2021/10/08 09:28:03;;;;;;;;;8.00;6.50;;;;;19.54;50.35;102090.06;5038677;28;45981;-60
2021/10/08 09:30:38;;;;;;;;;11.50;10.75;;;;;19.65;49.84;102081.78;5055600;28;45534;-60
2021/10/08 09:33:08;;;;;;;;;9.00;8.00;;;;;19.79;49.84;102083.03;5056096;28;45690;-60
2021/10/08 09:35:33;;;;;;;;;5.00;5.00;;;;;19.92;49.26;102082.63;5054603;28;46175;-60
2021/10/08 09:38:07;;;;;;;;;7.75;7.50;;;;;19.95;48.27;102084.97;5055087;28;66988;-60
2021/10/08 09:40:51;;;;;;;;;7.50;5.25;;;;;19.97;48.89;102076.78;5054084;28;45700;-60
2021/10/08 09:43:22;;;;;;;;;6.75;6.50;;;;;20.08;48.85;102068.50;5056301;28;45474;-60
2021/10/08 09:45:52;;;;;;;;;8.00;7.00;;;;;20.21;48.01;102075.22;5055964;28;45393;-60
2021/10/08 09:48:44;;;;;;;;;8.00;7.25;;;;;20.28;47.53;102071.72;5038488;28;45886;-60
2021/10/08 09:51:15;;;;;;;;;12.25;8.00;;;;;20.31;47.28;102063.38;5054481;28;45410;-60
2021/10/08 09:53:46;;;;;;;;;6.00;6.00;;;;;20.36;47.17;102067.41;5055768;28;45309;-59
2021/10/08 09:56:31;;;;;;;;;7.00;6.00;;;;;20.47;46.70;102061.75;5055494;28;45280;-60
2021/10/08 09:58:56;;;;;;;;;6.00;5.25;;;;;20.59;46.06;102055.09;5053743;28;45248;-60
2021/10/08 10:01:29;;;;;;;;;8.25;7.00;;;;;20.71;46.57;102057.44;5054147;28;62079;-60
2021/10/08 10:03:54;;;;;;;;;11.00;8.00;;;;;20.80;46.37;102059.13;5037664;28;46314;-60
2021/10/08 10:06:20;;;;;;;;;7.50;7.00;;;;;20.93;46.81;102052.47;5037213;28;45531;-60
2021/10/08 10:08:45;;;;;;;;;7.00;7.00;;;;;21.11;46.02;102052.28;5055160;28;45508;-60
2021/10/08 10:11:11;;;;;;;;;8.50;5.00;;;;;21.28;46.03;102050.41;5054458;28;50785;-60
2021/10/08 10:13:40;;;;;;;;;7.75;7.00;;;;;21.41;45.81;102058.72;5037093;28;46457;-60
2021/10/08 10:16:06;;;;;;;;;6.75;6.75;;;;;21.54;45.11;102057.38;5038009;28;45522;-60
2021/10/08 10:18:31;;;;;;;;;8.25;7.50;;;;;21.65;44.63;102051.69;5054553;28;68931;-61
2021/10/08 10:20:56;;;;;;;;;6.00;5.50;;;;;21.71;44.02;102042.97;5020232;28;46130;-60
2021/10/08 10:23:22;;;;;;;;;5.00;5.00;;;;;21.75;44.14;102051.47;5054421;28;61105;-60
2021/10/08 10:25:48;;;;;;;;;4.25;4.25;;;;;21.82;44.27;102051.59;5055243;28;45445;-61
2021/10/08 10:28:14;;;;;;;;;6.00;6.00;;;;;21.95;44.74;102046.53;5037388;28;45278;-61
2021/10/08 10:30:40;;;;;;;;;5.50;5.00;;;;;22.08;43.59;102054.84;5054816;28;45626;-60
2021/10/08 10:33:06;;;;;;;;;5.00;5.00;;;;;22.12;43.88;102044.59;5020781;28;45342;-61
2021/10/08 10:35:51;;;;;;;;;4.75;4.50;;;;;22.17;43.73;102041.41;5020594;28;46257;-60
2021/10/08 10:38:37;;;;;;;;;5.00;5.00;;;;;22.22;43.44;102041.72;5036633;28;45313;-60
2021/10/08 10:41:08;;;;;;;;;5.00;5.00;;;;;22.31;43.08;102039.81;5054102;28;45481;-60
2021/10/08 10:43:45;;;;;;;;;3.00;3.00;;;;;22.40;43.19;102033.38;5054890;28;45564;-60
2021/10/08 10:46:51;;;;;;;;;3.50;3.50;;;;;22.47;42.05;102039.72;5054758;28;45395;-60
2021/10/08 10:51:56;;;;;;;;;2.75;2.25;;;;;22.54;40.85;102039.84;5054054;28;45459;-61
2021/10/08 10:54:34;;;;;;;;;2.75;2.00;;;;;22.46;40.10;102031.88;5054700;28;45411;-60
2021/10/08 10:57:20;;;;;;;;;3.50;3.50;;;;;22.51;40.51;102033.00;5053608;28;46169;-60
2021/10/08 10:59:46;;;;;;;;;4.00;4.00;;;;;22.62;39.84;102030.91;5023132;28;45952;-61
2021/10/08 11:02:18;;;;;;;;;2.50;2.50;;;;;22.74;40.15;102034.81;5036080;28;45347;-60
2021/10/08 11:04:48;;;;;;;;;3.00;3.00;;;;;22.88;39.85;102030.50;5054350;28;46023;-60
2021/10/08 11:07:17;;;;;;;;;10.00;9.25;;;;;22.92;39.58;102033.66;5053985;28;46622;-60
2021/10/08 11:09:43;;;;;;;;;3.25;3.00;;;;;23.01;39.68;102024.53;5053762;28;45442;-60
2021/10/08 11:12:53;;;;;;;;;3.75;3.00;;;;;23.12;39.34;102024.06;5036137;28;45221;-61
2021/10/08 11:15:19;;;;;;;;;3.00;3.00;;;;;23.30;38.55;102022.09;5049623;28;45413;-60
2021/10/08 11:17:54;;;;;;;;;2.00;2.00;;;;;23.40;38.63;102019.94;5054396;28;45668;-61
2021/10/08 11:20:28;;;;;;;;;3.00;3.00;;;;;23.52;38.44;102015.78;5054483;28;45439;-61